createdAt,value
2023-05-15T00:01:02.352Z,7.70
2023-05-15T00:03:31.934Z,5.78
2023-05-15T00:06:01.527Z,6.90
2023-05-15T00:08:29.444Z,6.72
2023-05-15T00:11:01.560Z,7.78
2023-05-15T00:13:30.271Z,7.13
2023-05-15T00:15:58.677Z,6.18
2023-05-15T00:18:27.176Z,8.88
2023-05-15T00:20:55.584Z,7.45
2023-05-15T00:23:24.785Z,6.20
2023-05-15T00:25:53.152Z,12.35
2023-05-15T00:28:21.130Z,7.28
2023-05-15T00:30:49.299Z,8.65
2023-05-15T00:33:17.165Z,7.80
2023-05-15T00:35:45.990Z,8.05
2023-05-15T00:38:13.938Z,6.50
2023-05-15T00:40:44.742Z,9.75
2023-05-15T00:43:13.012Z,6.78
2023-05-15T00:45:42.222Z,6.88
2023-05-15T00:48:11.041Z,9.10
2023-05-15T00:50:41.848Z,8.73
2023-05-15T00:53:09.845Z,6.22
2023-05-15T00:55:38.626Z,6.93
2023-05-15T00:58:08.442Z,7.38
2023-05-15T01:03:25.558Z,7.82
2023-05-15T01:05:53.769Z,5.45
2023-05-15T01:08:24.485Z,6.55
2023-05-15T01:10:53.064Z,8.65
2023-05-15T01:13:24.878Z,6.60
2023-05-15T01:15:52.990Z,7.85
2023-05-15T01:18:21.065Z,5.40
2023-05-15T01:20:58.225Z,5.38
2023-05-15T01:23:35.681Z,7.45
2023-05-15T01:26:29.970Z,6.03
2023-05-15T01:29:02.540Z,6.55
2023-05-15T01:31:32.709Z,5.63
2023-05-15T01:34:04.130Z,5.50
2023-05-15T01:36:37.314Z,5.75
2023-05-15T01:39:06.272Z,5.10
2023-05-15T01:41:41.103Z,5.57
2023-05-15T01:44:15.747Z,6.88
2023-05-15T01:46:46.384Z,6.72
2023-05-15T01:49:15.487Z,6.85
2023-05-15T01:51:44.270Z,7.63
2023-05-15T01:54:12.818Z,6.15
2023-05-15T01:56:41.942Z,8.90
2023-05-15T01:59:11.671Z,5.32
2023-05-15T02:01:40.559Z,8.05
2023-05-15T02:04:09.864Z,7.53
2023-05-15T02:06:38.621Z,6.18
2023-05-15T02:09:06.913Z,5.95
2023-05-15T02:11:35.991Z,7.57
2023-05-15T02:14:05.985Z,7.00
2023-05-15T02:16:35.747Z,7.47
2023-05-15T02:19:03.718Z,6.13
2023-05-15T02:21:31.961Z,7.07
2023-05-15T02:24:00.036Z,6.47
2023-05-15T02:26:34.616Z,9.30
2023-05-15T02:29:11.552Z,8.55
2023-05-15T02:31:48.997Z,5.85
2023-05-15T02:34:21.877Z,7.78
2023-05-15T02:36:53.342Z,7.57
2023-05-15T02:39:23.387Z,21.60
2023-05-15T02:41:53.106Z,6.97
2023-05-15T02:44:22.104Z,9.20
2023-05-15T02:46:52.272Z,9.30
2023-05-15T02:49:20.426Z,8.20
2023-05-15T02:51:48.780Z,8.60
2023-05-15T02:54:16.846Z,9.07
2023-05-15T02:56:45.000Z,9.13
2023-05-15T02:59:13.411Z,9.70
2023-05-15T03:01:41.808Z,13.82
2023-05-15T03:04:11.208Z,8.77
2023-05-15T03:06:39.371Z,11.88
2023-05-15T03:09:07.350Z,10.65
2023-05-15T03:11:35.533Z,11.18
2023-05-15T03:14:03.494Z,12.90
2023-05-15T03:16:31.948Z,11.98
2023-05-15T03:18:59.931Z,11.23
2023-05-15T03:21:29.490Z,12.80
2023-05-15T03:23:57.502Z,13.18
2023-05-15T03:26:25.708Z,21.63
2023-05-15T03:28:53.745Z,9.95
2023-05-15T03:31:21.930Z,10.25
2023-05-15T03:33:51.421Z,10.05
2023-05-15T03:36:19.648Z,8.43
2023-05-15T03:38:48.879Z,8.65
2023-05-15T03:41:17.029Z,8.80
2023-05-15T03:43:45.005Z,7.97
2023-05-15T03:46:13.209Z,6.53
2023-05-15T03:48:41.226Z,6.32
2023-05-15T03:51:09.413Z,8.38
2023-05-15T03:53:37.325Z,6.95
2023-05-15T03:56:07.348Z,7.13
2023-05-15T03:58:35.800Z,11.35
2023-05-15T04:01:04.042Z,8.18
2023-05-15T04:03:31.983Z,9.52
2023-05-15T04:06:00.168Z,12.27
2023-05-15T04:08:28.095Z,12.43
2023-05-15T04:10:56.292Z,10.35
2023-05-15T04:13:25.539Z,11.18
2023-05-15T04:15:53.920Z,12.13
2023-05-15T04:18:21.899Z,12.65
2023-05-15T04:20:50.216Z,14.68
2023-05-15T04:23:18.074Z,11.45
2023-05-15T04:25:46.826Z,14.48
2023-05-15T04:28:14.884Z,19.83
2023-05-15T04:30:44.356Z,17.23
2023-05-15T04:33:12.318Z,15.70
2023-05-15T04:35:40.626Z,17.30
2023-05-15T04:38:08.666Z,13.55
2023-05-15T04:40:36.848Z,13.23
2023-05-15T04:43:05.879Z,14.63
2023-05-15T04:45:34.029Z,14.07
2023-05-15T04:48:03.345Z,14.38
2023-05-15T04:50:31.539Z,15.85
2023-05-15T04:52:59.424Z,13.57
2023-05-15T04:55:27.930Z,11.32
2023-05-15T04:57:55.914Z,12.27
2023-05-15T05:00:24.323Z,15.43
2023-05-15T05:02:52.182Z,11.52
2023-05-15T05:05:22.020Z,13.88
2023-05-15T05:07:51.943Z,13.93
2023-05-15T05:10:20.288Z,15.52
2023-05-15T05:12:48.239Z,13.38
2023-05-15T05:15:16.565Z,13.15
2023-05-15T05:17:44.467Z,11.98
2023-05-15T05:20:13.585Z,13.02
2023-05-15T05:22:42.921Z,13.75
2023-05-15T05:25:11.509Z,12.60
2023-05-15T05:27:39.406Z,11.50
2023-05-15T05:30:08.906Z,12.05
2023-05-15T05:32:36.840Z,10.00
2023-05-15T05:35:05.690Z,11.15
2023-05-15T05:37:33.692Z,10.30
2023-05-15T05:40:05.560Z,11.18
2023-05-15T05:42:33.542Z,10.00
2023-05-15T05:45:01.700Z,9.23
2023-05-15T05:47:29.634Z,9.38
2023-05-15T05:49:57.810Z,12.63
2023-05-15T05:52:25.734Z,10.60
2023-05-15T05:54:53.866Z,12.52
2023-05-15T05:57:23.053Z,9.10
2023-05-15T05:59:51.276Z,9.85
2023-05-15T06:02:19.257Z,10.73
2023-05-15T06:04:47.473Z,12.13
2023-05-15T06:07:15.453Z,10.23
2023-05-15T06:09:43.677Z,12.52
2023-05-15T06:12:11.540Z,9.40
2023-05-15T06:14:41.097Z,11.63
2023-05-15T06:17:09.093Z,11.77
2023-05-15T06:19:37.383Z,9.45
2023-05-15T06:22:05.700Z,10.57
2023-05-15T06:24:33.833Z,9.48
2023-05-15T06:27:01.856Z,9.73
2023-05-15T06:29:29.991Z,7.72
2023-05-15T06:31:59.333Z,10.57
2023-05-15T06:34:27.463Z,7.15
2023-05-15T06:36:55.665Z,7.20
2023-05-15T06:39:23.825Z,7.50
2023-05-15T06:41:57.853Z,8.05
2023-05-15T06:44:26.040Z,6.40
2023-05-15T06:46:53.966Z,5.40
2023-05-15T06:49:23.445Z,4.82
2023-05-15T06:51:51.626Z,5.25
2023-05-15T06:54:19.745Z,7.30
2023-05-15T06:56:47.743Z,4.70
2023-05-15T06:59:15.918Z,6.22
2023-05-15T07:01:43.983Z,7.28
2023-05-15T07:04:15.269Z,5.10
2023-05-15T07:06:44.518Z,4.05
2023-05-15T07:09:13.505Z,3.85
2023-05-15T07:11:42.136Z,3.55
2023-05-15T07:14:10.363Z,4.45
2023-05-15T07:16:38.233Z,4.85
2023-05-15T07:19:06.424Z,4.30
2023-05-15T07:21:34.393Z,5.13
2023-05-15T07:24:04.233Z,3.53
2023-05-15T07:26:38.346Z,4.43
2023-05-15T07:29:10.317Z,3.38
2023-05-15T07:31:40.295Z,5.68
2023-05-15T07:34:08.471Z,2.83
2023-05-15T07:36:36.320Z,4.97
2023-05-15T07:39:05.946Z,3.58
2023-05-15T07:41:34.249Z,3.85
2023-05-15T07:44:02.396Z,4.03
2023-05-15T07:46:30.345Z,4.43
2023-05-15T07:48:58.886Z,3.03
2023-05-15T07:51:26.820Z,3.65
2023-05-15T07:53:55.016Z,2.67
2023-05-15T07:56:24.310Z,2.88
2023-05-15T07:58:52.462Z,2.88
2023-05-15T08:01:20.324Z,5.55
2023-05-15T08:03:48.526Z,2.80
2023-05-15T08:06:16.486Z,3.35
2023-05-15T08:08:44.671Z,3.85
2023-05-15T08:11:12.589Z,7.72
2023-05-15T08:13:42.063Z,3.17
2023-05-15T08:16:09.985Z,4.93
2023-05-15T08:18:38.252Z,3.85
2023-05-15T08:21:06.178Z,4.75
2023-05-15T08:23:34.318Z,6.57
2023-05-15T08:26:02.196Z,5.35
2023-05-15T08:28:30.310Z,5.88
2023-05-15T08:30:59.576Z,3.67
2023-05-15T08:33:27.752Z,3.63
2023-05-15T08:35:55.607Z,4.57
2023-05-15T08:38:23.844Z,4.95
2023-05-15T08:40:52.054Z,4.38
2023-05-15T08:43:22.382Z,6.07
2023-05-15T08:45:50.665Z,3.95
2023-05-15T08:48:21.153Z,7.28
2023-05-15T08:50:50.107Z,3.40
2023-05-15T08:53:18.630Z,4.93
2023-05-15T08:55:46.634Z,4.30
2023-05-15T08:58:16.814Z,4.50
2023-05-15T09:00:44.682Z,7.95
2023-05-15T09:03:16.498Z,3.70
2023-05-15T09:05:46.128Z,3.53
2023-05-15T09:08:15.441Z,4.50
2023-05-15T09:10:43.741Z,5.30
2023-05-15T09:13:12.891Z,4.93
2023-05-15T09:15:41.505Z,5.60
2023-05-15T09:18:10.125Z,5.40
2023-05-15T09:20:38.996Z,3.15
2023-05-15T09:23:24.472Z,3.63
2023-05-15T09:25:55.511Z,6.20
2023-05-15T09:28:29.234Z,4.85
2023-05-15T09:31:01.916Z,4.22
2023-05-15T09:33:31.786Z,3.47
2023-05-15T09:35:59.755Z,4.57
2023-05-15T09:38:30.791Z,4.70
2023-05-15T09:41:03.521Z,3.95
2023-05-15T09:43:34.988Z,9.43
2023-05-15T09:46:02.953Z,4.27
2023-05-15T09:48:32.342Z,4.80
2023-05-15T09:51:00.362Z,5.13
2023-05-15T09:53:30.572Z,4.47
2023-05-15T09:55:58.474Z,4.18
2023-05-15T09:58:27.640Z,4.63
2023-05-15T10:00:55.684Z,3.17
2023-05-15T10:03:24.035Z,5.28
2023-05-15T10:05:52.048Z,5.95
2023-05-15T10:08:29.201Z,5.70
2023-05-15T10:11:00.972Z,5.32
2023-05-15T10:15:57.642Z,4.30
2023-05-15T10:18:26.262Z,7.28
2023-05-15T10:20:57.910Z,5.15
2023-05-15T10:23:26.779Z,5.10
2023-05-15T10:26:00.714Z,7.25
2023-05-15T10:28:29.801Z,5.07
2023-05-15T10:30:59.694Z,6.78
2023-05-15T10:33:28.298Z,3.75
2023-05-15T10:35:56.781Z,4.13
2023-05-15T10:38:26.106Z,3.85
2023-05-15T10:40:59.812Z,5.68
2023-05-15T10:43:36.682Z,7.53
2023-05-15T10:46:05.543Z,5.18
2023-05-15T10:48:34.193Z,6.15
2023-05-15T10:51:02.238Z,8.70
2023-05-15T10:53:30.440Z,4.95
2023-05-15T10:55:58.426Z,5.68
2023-05-15T10:58:26.697Z,7.28
2023-05-15T11:00:56.095Z,4.80
2023-05-15T11:03:47.902Z,7.10
2023-05-15T11:06:17.445Z,7.20
2023-05-15T11:08:45.929Z,4.75
2023-05-15T11:11:47.125Z,6.97
2023-05-15T11:14:15.805Z,5.28
2023-05-15T11:17:05.053Z,4.63
2023-05-15T11:19:35.830Z,4.63
2023-05-15T11:22:07.643Z,5.30
2023-05-15T11:27:19.654Z,8.10
2023-05-15T11:30:22.068Z,13.90
2023-05-15T11:32:57.308Z,5.35
2023-05-15T11:35:28.861Z,6.50
2023-05-15T11:37:58.188Z,9.73
2023-05-15T11:40:27.967Z,5.90
2023-05-15T11:43:07.339Z,3.97
2023-05-15T11:45:37.416Z,5.95
2023-05-15T11:48:08.837Z,5.18
2023-05-15T11:50:37.146Z,7.10
2023-05-15T11:53:06.394Z,6.10
2023-05-15T11:55:36.503Z,3.15
2023-05-15T11:58:05.089Z,4.63
2023-05-15T12:00:33.451Z,4.85
2023-05-15T12:03:03.671Z,4.10
2023-05-15T12:05:33.365Z,3.53
2023-05-15T12:08:02.336Z,7.10
2023-05-15T12:10:32.044Z,4.35
2023-05-15T12:12:59.953Z,5.95
2023-05-15T12:15:28.099Z,4.65
2023-05-15T12:17:56.086Z,4.82
2023-05-15T12:20:24.805Z,6.70
2023-05-15T12:22:54.190Z,4.72
2023-05-15T12:25:22.518Z,7.13
2023-05-15T12:27:50.433Z,5.70
2023-05-15T12:30:18.708Z,7.03
2023-05-15T12:32:46.754Z,6.93
2023-05-15T12:35:15.184Z,7.15
2023-05-15T12:37:43.190Z,3.78
2023-05-15T12:40:14.759Z,5.80
2023-05-15T12:42:43.483Z,4.03
2023-05-15T12:45:15.666Z,8.27
2023-05-15T12:47:44.405Z,4.00
2023-05-15T12:50:16.813Z,6.07
2023-05-15T12:52:51.525Z,7.47
2023-05-15T12:55:24.749Z,4.85
2023-05-15T12:57:52.812Z,4.63
2023-05-15T13:00:22.940Z,5.78
2023-05-15T13:02:54.792Z,5.28
2023-05-15T13:05:24.163Z,5.45
2023-05-15T13:07:52.458Z,6.50
2023-05-15T13:10:24.516Z,5.00
2023-05-15T13:15:29.190Z,6.38
2023-05-15T13:18:00.564Z,4.70
2023-05-15T13:20:29.629Z,7.30
2023-05-15T13:22:57.501Z,5.88
2023-05-15T13:25:26.960Z,4.68
2023-05-15T13:27:56.173Z,5.20
2023-05-15T13:30:24.513Z,12.73
2023-05-15T13:32:55.359Z,5.45
2023-05-15T13:35:24.146Z,6.32
2023-05-15T13:37:52.136Z,3.65
2023-05-15T13:40:21.248Z,5.43
2023-05-15T13:42:51.067Z,1.95
2023-05-15T13:45:19.294Z,3.28
2023-05-15T13:47:47.234Z,3.20
2023-05-15T13:50:16.504Z,2.33
2023-05-15T13:52:45.309Z,3.40
2023-05-15T13:55:13.969Z,2.33
2023-05-15T13:57:43.375Z,5.05
2023-05-15T14:00:14.272Z,2.38
2023-05-15T14:02:42.996Z,1.77
2023-05-15T14:05:12.535Z,2.90
2023-05-15T14:07:40.862Z,3.83
2023-05-15T14:10:09.849Z,1.27
2023-05-15T14:12:37.791Z,1.13
2023-05-15T14:15:06.831Z,2.88
2023-05-15T14:17:36.120Z,1.85
2023-05-15T14:20:06.583Z,8.70
2023-05-15T14:22:34.439Z,1.90
2023-05-15T14:25:03.869Z,2.35
2023-05-15T14:27:31.956Z,1.85
2023-05-15T14:30:00.123Z,3.03
2023-05-15T14:32:28.045Z,2.20
2023-05-15T14:34:59.829Z,3.60
2023-05-15T14:37:28.395Z,2.85
2023-05-15T14:39:56.849Z,5.03
2023-05-15T14:42:24.790Z,5.45
2023-05-15T14:44:52.957Z,7.80
2023-05-15T14:47:20.949Z,6.95
2023-05-15T14:49:49.180Z,6.57
2023-05-15T14:52:18.544Z,4.82
2023-05-15T14:54:56.906Z,5.45
2023-05-15T14:57:34.571Z,12.73
2023-05-15T15:00:04.360Z,7.72
2023-05-15T15:02:32.390Z,6.50
2023-05-15T15:05:00.817Z,7.68
2023-05-15T15:07:30.881Z,5.65
2023-05-15T15:09:59.026Z,4.85
2023-05-15T15:12:27.541Z,8.50
2023-05-15T15:14:55.814Z,5.00
2023-05-15T15:17:23.694Z,5.45
2023-05-15T15:19:51.887Z,5.28
2023-05-15T15:22:19.817Z,9.93
2023-05-15T15:24:49.296Z,5.75
2023-05-15T15:27:17.438Z,7.50
2023-05-15T15:29:45.610Z,7.40
2023-05-15T15:32:13.524Z,4.85
2023-05-15T15:34:41.726Z,7.10
2023-05-15T15:37:09.605Z,5.03
2023-05-15T15:39:37.709Z,4.30
2023-05-15T15:42:07.306Z,7.55
2023-05-15T15:44:35.813Z,5.32
2023-05-15T15:47:03.751Z,3.60
2023-05-15T15:49:32.284Z,5.85
2023-05-15T15:52:00.271Z,5.35
2023-05-15T15:54:28.989Z,4.22
2023-05-15T15:56:57.060Z,5.57
2023-05-15T15:59:26.790Z,5.22
2023-05-15T16:01:54.739Z,3.92
2023-05-15T16:04:22.891Z,2.70
2023-05-15T16:06:50.862Z,5.43
2023-05-15T16:09:20.182Z,2.58
2023-05-15T16:11:48.105Z,6.85
2023-05-15T16:14:16.497Z,5.05
2023-05-15T16:16:45.877Z,4.03
2023-05-15T16:19:14.090Z,2.63
2023-05-15T16:21:41.997Z,6.13
2023-05-15T16:24:10.264Z,7.95
2023-05-15T16:26:38.821Z,3.47
2023-05-15T16:29:07.089Z,3.47
2023-05-15T16:31:35.038Z,3.03
2023-05-15T16:34:04.678Z,2.97
2023-05-15T16:36:32.685Z,3.58
2023-05-15T16:39:01.571Z,1.88
2023-05-15T16:41:29.787Z,2.80
2023-05-15T16:43:57.951Z,4.60
2023-05-15T16:46:25.944Z,1.55
2023-05-15T16:48:54.117Z,2.92
2023-05-15T16:51:23.390Z,2.05
2023-05-15T16:53:52.689Z,1.52
2023-05-15T16:56:20.862Z,9.10
2023-05-15T16:58:50.565Z,3.17
2023-05-15T17:01:18.557Z,2.47
2023-05-15T17:03:46.916Z,2.60
2023-05-15T17:06:14.861Z,3.00
2023-05-15T17:08:46.077Z,3.70
2023-05-15T17:11:14.234Z,3.05
2023-05-15T17:13:42.419Z,1.80
2023-05-15T17:16:10.376Z,2.10
2023-05-15T17:18:39.801Z,2.22
2023-05-15T17:21:07.915Z,6.53
2023-05-15T17:23:36.057Z,3.40
2023-05-15T17:26:05.439Z,2.13
2023-05-15T17:28:35.874Z,3.92
2023-05-15T17:31:09.666Z,3.50
2023-05-15T17:33:37.863Z,3.97
2023-05-15T17:36:06.099Z,1.80
2023-05-15T17:38:34.454Z,3.78
2023-05-15T17:41:02.341Z,2.92
2023-05-15T17:43:31.837Z,1.83
2023-05-15T17:46:00.385Z,4.88
2023-05-15T17:48:28.696Z,2.53
2023-05-15T17:50:56.559Z,3.95
2023-05-15T17:53:25.315Z,2.25
2023-05-15T17:55:53.187Z,8.07
2023-05-15T17:58:21.782Z,3.58
2023-05-15T18:00:52.612Z,3.72
2023-05-15T18:03:20.926Z,3.47
2023-05-15T18:05:49.020Z,5.47
2023-05-15T18:08:17.165Z,3.80
2023-05-15T18:10:45.185Z,5.13
2023-05-15T18:13:13.640Z,4.10
2023-05-15T18:15:41.510Z,4.20
2023-05-15T18:18:11.421Z,5.97
2023-05-15T18:20:39.373Z,3.80
2023-05-15T18:23:07.547Z,4.97
2023-05-15T18:25:36.770Z,6.28
2023-05-15T18:28:05.385Z,3.35
2023-05-15T18:30:34.534Z,3.42
2023-05-15T18:33:02.736Z,3.10
2023-05-15T18:35:32.006Z,4.00
2023-05-15T18:38:00.236Z,3.15
2023-05-15T18:40:28.118Z,3.25
2023-05-15T18:42:56.733Z,3.30
2023-05-15T18:45:25.166Z,4.75
2023-05-15T18:47:54.899Z,2.20
2023-05-15T18:50:24.900Z,2.10
2023-05-15T18:52:54.400Z,2.88
2023-05-15T18:55:22.822Z,4.10
2023-05-15T18:57:51.642Z,4.43
2023-05-15T19:00:36.549Z,2.35
2023-05-15T19:03:06.622Z,2.90
2023-05-15T19:05:34.728Z,3.63
2023-05-15T19:08:04.568Z,5.88
2023-05-15T19:10:32.522Z,1.58
2023-05-15T19:13:00.691Z,4.28
2023-05-15T19:15:28.656Z,1.95
2023-05-15T19:17:56.867Z,2.53
2023-05-15T19:20:25.124Z,4.72
2023-05-15T19:22:53.483Z,5.80
2023-05-15T19:25:22.876Z,3.90
2023-05-15T19:27:51.036Z,2.00
2023-05-15T19:30:19.076Z,2.58
2023-05-15T19:32:47.269Z,3.13
2023-05-15T19:35:15.330Z,3.97
2023-05-15T19:37:43.428Z,5.93
2023-05-15T19:40:11.893Z,2.72
2023-05-15T19:42:41.389Z,5.18
2023-05-15T19:45:10.131Z,4.63
2023-05-15T19:47:38.397Z,4.40
2023-05-15T19:50:07.689Z,3.67
2023-05-15T19:52:35.853Z,2.90
2023-05-15T19:55:03.746Z,2.47
2023-05-15T19:57:31.881Z,4.38
2023-05-15T20:00:01.079Z,3.95
2023-05-15T20:02:29.394Z,6.88
2023-05-15T20:04:57.352Z,6.93
2023-05-15T20:07:25.769Z,4.68
2023-05-15T20:09:53.670Z,4.65
2023-05-15T20:12:21.974Z,3.47
2023-05-15T20:14:50.173Z,3.25
2023-05-15T20:17:19.685Z,1.98
2023-05-15T20:19:48.029Z,4.13
2023-05-15T20:22:16.200Z,3.20
2023-05-15T20:24:44.200Z,2.88
2023-05-15T20:27:12.421Z,2.35
2023-05-15T20:29:40.458Z,3.05
2023-05-15T20:32:08.664Z,2.25
2023-05-15T20:34:37.905Z,2.67
2023-05-15T20:37:06.311Z,2.88
2023-05-15T20:39:34.189Z,4.60
2023-05-15T20:42:02.714Z,3.42
2023-05-15T20:44:30.820Z,3.60
2023-05-15T20:46:58.948Z,3.67
2023-05-15T20:49:26.850Z,3.42
2023-05-15T20:51:56.538Z,4.55
2023-05-15T20:54:24.456Z,4.20
2023-05-15T20:56:52.583Z,3.33
2023-05-15T20:59:20.941Z,2.70
2023-05-15T21:01:49.180Z,2.88
2023-05-15T21:04:17.143Z,3.80
2023-05-15T21:06:45.556Z,2.95
2023-05-15T21:09:16.563Z,3.33
2023-05-15T21:11:46.767Z,2.67
2023-05-15T21:14:14.789Z,3.60
2023-05-15T21:16:42.942Z,2.85
2023-05-15T21:19:10.864Z,3.58
2023-05-15T21:21:39.075Z,2.17
2023-05-15T21:24:07.757Z,2.90
2023-05-15T21:26:37.237Z,3.17
2023-05-15T21:29:05.102Z,2.30
2023-05-15T21:31:33.284Z,2.83
2023-05-15T21:34:01.198Z,3.08
2023-05-15T21:36:29.463Z,2.83
2023-05-15T21:38:57.358Z,3.35
2023-05-15T21:41:25.998Z,3.60
2023-05-15T21:43:55.445Z,6.90
2023-05-15T21:46:23.988Z,5.32
2023-05-15T21:48:51.870Z,3.50
2023-05-15T21:51:20.001Z,2.33
2023-05-15T21:53:48.612Z,3.85
2023-05-15T21:56:16.774Z,2.22
2023-05-15T21:58:44.955Z,3.15
2023-05-15T22:01:16.283Z,2.60
2023-05-15T22:03:45.156Z,2.97
2023-05-15T22:06:13.469Z,4.63
2023-05-15T22:08:41.339Z,3.88
2023-05-15T22:11:09.750Z,5.07
2023-05-15T22:13:37.700Z,3.10
2023-05-15T22:16:07.145Z,2.60
2023-05-15T22:18:37.752Z,3.85
2023-05-15T22:21:06.313Z,2.85
2023-05-15T22:23:34.236Z,2.55
2023-05-15T22:26:02.453Z,3.83
2023-05-15T22:28:30.331Z,3.45
2023-05-15T22:30:58.478Z,2.13
2023-05-15T22:33:27.143Z,3.75
2023-05-15T22:35:56.653Z,2.63
2023-05-15T22:38:24.560Z,4.53
2023-05-15T22:40:53.382Z,3.72
2023-05-15T22:43:22.577Z,2.35
2023-05-15T22:45:50.806Z,4.38
2023-05-15T22:48:19.066Z,2.65
2023-05-15T22:50:47.548Z,3.33
2023-05-15T22:53:16.874Z,2.63
2023-05-15T22:55:45.862Z,4.88
2023-05-15T22:58:14.344Z,4.07
2023-05-15T23:00:42.470Z,3.78
2023-05-15T23:03:10.769Z,3.42
2023-05-15T23:05:39.024Z,2.35
2023-05-15T23:08:07.105Z,8.85
2023-05-15T23:10:36.660Z,5.25
2023-05-15T23:13:05.444Z,4.22
2023-05-15T23:15:33.605Z,2.33
2023-05-15T23:18:01.585Z,6.78
2023-05-15T23:20:30.152Z,7.22
2023-05-15T23:22:58.183Z,3.17
2023-05-15T23:25:26.324Z,4.30
2023-05-15T23:27:55.595Z,7.05
2023-05-15T23:30:23.899Z,3.00
2023-05-15T23:32:51.934Z,3.40
2023-05-15T23:35:20.469Z,4.68
2023-05-15T23:37:48.357Z,6.20
2023-05-15T23:40:16.524Z,4.88
2023-05-15T23:42:44.441Z,2.03
2023-05-15T23:45:14.997Z,2.78
2023-05-15T23:47:42.927Z,3.13
2023-05-15T23:50:11.548Z,3.95
2023-05-15T23:52:39.419Z,3.92
2023-05-15T23:55:08.603Z,7.20
2023-05-15T23:57:36.605Z,3.83
